createdAt,value
2022-11-30T00:02:11.020Z,1.94
2022-11-30T00:07:14.544Z,1.93
2022-11-30T00:12:17.854Z,1.92
2022-11-30T00:17:21.369Z,1.87
2022-11-30T00:22:24.782Z,1.87
2022-11-30T00:27:28.605Z,1.91
2022-11-30T00:32:32.632Z,1.93
2022-11-30T00:37:36.252Z,1.91
2022-11-30T00:42:39.665Z,1.95
2022-11-30T00:47:42.974Z,2.01
2022-11-30T00:52:46.491Z,2.07
2022-11-30T00:57:49.803Z,2.06
2022-11-30T01:02:58.130Z,2.05
2022-11-30T01:08:02.778Z,2.04
2022-11-30T01:13:07.003Z,2.06
2022-11-30T01:18:10.723Z,2.00
2022-11-30T01:23:14.037Z,1.95
2022-11-30T01:28:17.447Z,1.93
2022-11-30T01:33:20.964Z,1.93
2022-11-30T01:38:24.376Z,1.91
2022-11-30T01:44:00.769Z,1.88
2022-11-30T01:49:04.175Z,1.85
2022-11-30T01:54:11.001Z,1.81
2022-11-30T01:59:15.919Z,1.82
2022-11-30T02:04:26.807Z,1.82
2022-11-30T02:09:36.161Z,1.81
2022-11-30T02:14:51.446Z,1.81
2022-11-30T02:20:05.103Z,1.81
2022-11-30T02:25:17.833Z,1.82
2022-11-30T02:30:23.482Z,1.81
2022-11-30T02:35:33.866Z,1.82
2022-11-30T02:40:37.494Z,1.85
2022-11-30T02:46:05.412Z,1.87
2022-11-30T02:51:12.684Z,1.85
2022-11-30T02:56:18.005Z,1.90
2022-11-30T03:01:22.522Z,1.91
2022-11-30T03:06:25.892Z,1.91
2022-11-30T03:11:29.408Z,1.90
2022-11-30T03:16:33.766Z,1.91
2022-11-30T03:21:37.061Z,1.89
2022-11-30T03:26:40.674Z,1.89
2022-11-30T03:31:43.890Z,1.89
2022-11-30T03:36:47.297Z,1.87
2022-11-30T03:41:51.322Z,1.91
2022-11-30T03:46:54.641Z,1.91
2022-11-30T03:52:01.117Z,1.93
2022-11-30T03:57:04.634Z,1.94
2022-11-30T04:02:08.097Z,1.97
2022-11-30T04:07:11.564Z,1.97
2022-11-30T04:12:14.973Z,1.94
2022-11-30T04:17:18.391Z,1.93
2022-11-30T04:22:21.801Z,1.93
2022-11-30T04:27:25.215Z,1.98
2022-11-30T04:32:28.523Z,2.03
2022-11-30T04:37:31.940Z,2.06
2022-11-30T04:42:35.350Z,2.06
2022-11-30T04:47:38.866Z,2.08
2022-11-30T04:52:42.177Z,2.08
2022-11-30T04:57:46.919Z,2.05
2022-11-30T05:02:52.964Z,2.07
2022-11-30T05:07:58.913Z,2.04
2022-11-30T05:13:02.280Z,2.04
2022-11-30T05:18:05.694Z,2.05
2022-11-30T05:23:09.108Z,2.07
2022-11-30T05:28:13.338Z,2.08
2022-11-30T05:33:16.649Z,2.13
2022-11-30T05:38:20.164Z,2.16
2022-11-30T05:43:23.475Z,2.22
2022-11-30T05:48:27.200Z,2.27
2022-11-30T05:53:30.508Z,2.29
2022-11-30T05:58:34.634Z,2.30
2022-11-30T06:03:37.947Z,2.32
2022-11-30T06:08:41.979Z,2.29
2022-11-30T06:13:45.388Z,2.23
2022-11-30T06:18:48.598Z,2.18
2022-11-30T06:23:53.142Z,2.19
2022-11-30T06:28:56.551Z,2.21
2022-11-30T06:34:00.166Z,2.25
2022-11-30T06:39:04.091Z,2.27
2022-11-30T06:44:11.088Z,2.29
2022-11-30T06:49:14.502Z,2.33
2022-11-30T06:54:17.912Z,2.40
2022-11-30T06:59:21.328Z,2.43
2022-11-30T07:04:24.874Z,2.43
2022-11-30T07:09:28.360Z,2.38
2022-11-30T07:14:31.784Z,2.38
2022-11-30T07:19:35.395Z,2.41
2022-11-30T07:24:57.950Z,2.44
2022-11-30T07:30:01.365Z,2.50
2022-11-30T07:35:05.302Z,2.56
2022-11-30T07:40:12.085Z,2.64
2022-11-30T07:45:15.494Z,2.71
2022-11-30T07:50:18.806Z,2.74
2022-11-30T07:55:24.163Z,2.74
2022-11-30T08:00:27.476Z,2.81
2022-11-30T08:05:31.093Z,2.91
2022-11-30T08:10:34.406Z,2.96
2022-11-30T08:15:38.275Z,2.94
2022-11-30T08:20:46.952Z,2.94
2022-11-30T08:25:53.248Z,2.94
2022-11-30T08:31:01.733Z,2.93
2022-11-30T08:36:15.533Z,2.95
2022-11-30T08:41:21.923Z,3.03
2022-11-30T08:46:50.223Z,3.12
2022-11-30T08:57:19.015Z,3.15
2022-11-30T09:02:22.416Z,3.20
2022-11-30T09:07:26.243Z,3.18
2022-11-30T09:12:29.805Z,3.16
2022-11-30T09:17:33.838Z,3.16
2022-11-30T09:22:37.144Z,3.18
2022-11-30T09:27:40.561Z,3.25
2022-11-30T09:32:43.971Z,3.31
2022-11-30T09:37:47.388Z,3.33
2022-11-30T09:43:15.576Z,3.36
2022-11-30T09:48:27.799Z,3.29
2022-11-30T09:53:49.542Z,3.22
2022-11-30T09:59:14.151Z,3.18
2022-11-30T10:04:22.888Z,3.16
2022-11-30T10:10:30.454Z,3.14
2022-11-30T10:15:46.217Z,3.14
2022-11-30T10:20:58.939Z,3.16
2022-11-30T10:26:09.725Z,3.20
2022-11-30T10:31:14.906Z,3.13
2022-11-30T10:36:29.877Z,3.03
2022-11-30T10:41:44.234Z,2.97
2022-11-30T10:46:53.625Z,2.93
2022-11-30T10:52:03.555Z,2.91
2022-11-30T10:57:07.783Z,2.91
2022-11-30T11:02:35.011Z,2.90
2022-11-30T11:08:06.739Z,2.87
2022-11-30T11:13:38.303Z,2.88
2022-11-30T11:18:56.263Z,2.90
2022-11-30T11:23:59.466Z,2.97
2022-11-30T11:29:03.296Z,2.96
2022-11-30T11:34:24.565Z,2.98
2022-11-30T11:39:28.550Z,2.94
2022-11-30T11:44:32.475Z,2.83
2022-11-30T11:49:37.631Z,2.75
2022-11-30T11:54:49.847Z,2.72
2022-11-30T12:00:15.604Z,2.77
2022-11-30T12:05:46.235Z,2.86
2022-11-30T12:10:52.132Z,2.87
2022-11-30T12:16:30.311Z,2.88
2022-11-30T12:21:39.689Z,2.91
2022-11-30T12:26:49.757Z,2.94
2022-11-30T12:32:09.250Z,2.94
2022-11-30T12:37:15.437Z,2.92
2022-11-30T12:42:42.082Z,2.98
2022-11-30T12:48:17.385Z,2.98
2022-11-30T12:54:04.892Z,3.07
2022-11-30T12:59:24.277Z,3.18
2022-11-30T13:04:40.902Z,3.24
2022-11-30T13:10:22.917Z,3.34
2022-11-30T13:15:31.364Z,3.35
2022-11-30T13:21:07.217Z,3.44
2022-11-30T13:26:19.400Z,3.47
2022-11-30T13:32:04.633Z,3.44
2022-11-30T13:37:08.050Z,3.39
2022-11-30T13:42:34.461Z,3.39
2022-11-30T13:47:40.296Z,3.45
2022-11-30T13:52:59.357Z,3.42
2022-11-30T13:58:07.586Z,3.46
2022-11-30T14:03:23.176Z,3.46
2022-11-30T14:08:38.057Z,3.44
2022-11-30T14:13:42.389Z,3.32
2022-11-30T14:18:47.337Z,3.28
2022-11-30T14:24:18.425Z,3.28
2022-11-30T14:29:28.263Z,3.26
2022-11-30T14:34:52.799Z,3.27
2022-11-30T14:39:56.867Z,3.28
2022-11-30T14:45:00.317Z,3.25
2022-11-30T14:50:08.247Z,3.28
2022-11-30T14:55:52.914Z,3.25
2022-11-30T15:00:57.575Z,3.29
2022-11-30T15:06:03.813Z,3.29
2022-11-30T15:11:10.973Z,3.24
2022-11-30T15:16:32.628Z,3.13
2022-11-30T15:21:35.989Z,3.09
2022-11-30T15:27:08.625Z,3.08
2022-11-30T15:33:35.048Z,3.10
2022-11-30T15:38:39.489Z,3.19
2022-11-30T15:43:42.962Z,3.25
2022-11-30T15:48:49.384Z,3.26
2022-11-30T15:53:53.450Z,3.28
2022-11-30T15:59:06.962Z,3.33
2022-11-30T16:04:10.374Z,3.36
2022-11-30T16:09:32.668Z,3.39
2022-11-30T16:14:36.041Z,3.38
2022-11-30T16:19:39.455Z,3.33
2022-11-30T16:24:43.310Z,3.21
2022-11-30T16:29:52.149Z,3.17
2022-11-30T16:34:55.840Z,3.21
2022-11-30T16:39:59.456Z,3.26
2022-11-30T16:45:03.077Z,3.36
2022-11-30T16:50:07.344Z,3.39
2022-11-30T16:55:23.725Z,3.45
2022-11-30T17:00:28.497Z,3.49
2022-11-30T17:05:32.803Z,3.51
2022-11-30T17:10:37.444Z,3.49
2022-11-30T17:15:40.859Z,3.54
2022-11-30T17:20:44.476Z,3.60
2022-11-30T17:25:49.631Z,3.63
2022-11-30T17:30:53.063Z,3.60
2022-11-30T17:35:58.912Z,3.58
2022-11-30T17:41:07.010Z,3.60
2022-11-30T17:46:15.961Z,3.61
2022-11-30T17:51:19.627Z,3.62
2022-11-30T17:56:23.525Z,3.62
2022-11-30T18:01:27.839Z,3.60
2022-11-30T18:06:31.577Z,3.63
2022-11-30T18:11:35.300Z,3.68
2022-11-30T18:16:39.364Z,3.62
2022-11-30T18:21:46.372Z,3.64
2022-11-30T18:26:49.939Z,3.65
2022-11-30T18:31:53.661Z,3.65
2022-11-30T18:36:57.010Z,3.63
2022-11-30T18:42:00.484Z,3.61
2022-11-30T18:47:03.898Z,3.53
2022-11-30T18:52:07.313Z,3.48
2022-11-30T18:57:10.623Z,3.45
2022-11-30T19:02:14.094Z,3.47
2022-11-30T19:07:17.556Z,3.46
2022-11-30T19:12:21.085Z,3.49
2022-11-30T19:17:24.486Z,3.51
2022-11-30T19:22:31.374Z,3.49
2022-11-30T19:27:36.347Z,3.45
2022-11-30T19:32:39.738Z,3.44
2022-11-30T19:37:43.055Z,3.44
2022-11-30T19:42:46.361Z,3.45
2022-11-30T19:47:49.873Z,3.43
2022-11-30T19:52:54.004Z,3.44
2022-11-30T19:57:57.316Z,3.46
2022-11-30T20:03:00.732Z,3.50
2022-11-30T20:08:05.528Z,3.54
2022-11-30T20:13:08.987Z,3.56
2022-11-30T20:18:12.402Z,3.58
2022-11-30T20:23:15.608Z,3.60
2022-11-30T20:28:19.026Z,3.56
2022-11-30T20:33:22.333Z,3.55
2022-11-30T20:38:25.700Z,3.53
2022-11-30T20:43:29.260Z,3.45
2022-11-30T20:48:33.599Z,3.34
2022-11-30T20:53:37.013Z,3.32
2022-11-30T20:58:40.531Z,3.33
2022-11-30T21:03:44.860Z,3.36
2022-11-30T21:08:48.214Z,3.43
2022-11-30T21:13:52.303Z,3.48
2022-11-30T21:18:57.637Z,3.51
2022-11-30T21:24:03.830Z,3.48
2022-11-30T21:29:14.017Z,3.44
2022-11-30T21:34:17.831Z,3.39
2022-11-30T21:39:21.552Z,3.35
2022-11-30T21:44:25.067Z,3.33
2022-11-30T21:49:28.586Z,3.32
2022-11-30T21:54:31.892Z,3.31
2022-11-30T21:59:35.206Z,3.30
2022-11-30T22:04:38.925Z,3.27
2022-11-30T22:09:42.240Z,3.28
2022-11-30T22:14:45.652Z,3.32
2022-11-30T22:19:49.281Z,3.38
2022-11-30T22:24:55.548Z,3.38
2022-11-30T22:29:58.859Z,3.37
2022-11-30T22:35:02.170Z,3.32
2022-11-30T22:40:06.503Z,3.23
2022-11-30T22:45:10.351Z,3.18
2022-11-30T22:50:13.871Z,3.18
2022-11-30T22:55:17.396Z,3.13
2022-11-30T23:00:21.327Z,3.11
2022-11-30T23:05:24.693Z,3.14
2022-11-30T23:10:28.008Z,3.16
2022-11-30T23:15:31.317Z,3.17
2022-11-30T23:20:36.269Z,3.22
2022-11-30T23:25:39.369Z,3.22
2022-11-30T23:30:43.196Z,3.22
2022-11-30T23:35:46.405Z,3.17
2022-11-30T23:40:49.610Z,3.09
2022-11-30T23:45:52.922Z,3.04
2022-11-30T23:50:56.234Z,3.01
2022-11-30T23:56:08.923Z,2.98
